sensor_id;sensor_type;location;lat;lon;timestamp;temperature;humidity
29577;DHT22;16509;53.862;10.672;2024-01-30T00:00:59;2.90;99.90
29577;DHT22;16509;53.862;10.672;2024-01-30T00:03:24;2.90;99.90
29577;DHT22;16509;53.862;10.672;2024-01-30T00:05:50;2.90;99.90
29577;DHT22;16509;53.862;10.672;2024-01-30T00:08:15;2.90;99.90
29577;DHT22;16509;53.862;10.672;2024-01-30T00:10:41;2.90;99.90
29577;DHT22;16509;53.862;10.672;2024-01-30T00:13:06;2.90;99.90
29577;DHT22;16509;53.862;10.672;2024-01-30T00:15:32;2.90;99.90
29577;DHT22;16509;53.862;10.672;2024-01-30T00:17:58;2.80;99.90
29577;DHT22;16509;53.862;10.672;2024-01-30T00:20:23;2.80;99.90
29577;DHT22;16509;53.862;10.672;2024-01-30T00:22:49;2.80;99.90
29577;DHT22;16509;53.862;10.672;2024-01-30T00:25:14;2.70;99.90
29577;DHT22;16509;53.862;10.672;2024-01-30T00:27:40;2.70;99.90
29577;DHT22;16509;53.862;10.672;2024-01-30T00:30:06;2.70;99.90
29577;DHT22;16509;53.862;10.672;2024-01-30T00:32:32;2.70;99.90
29577;DHT22;16509;53.862;10.672;2024-01-30T00:34:57;2.70;99.90
29577;DHT22;16509;53.862;10.672;2024-01-30T00:37:23;2.60;99.90
29577;DHT22;16509;53.862;10.672;2024-01-30T00:39:49;2.60;99.90
29577;DHT22;16509;53.862;10.672;2024-01-30T00:42:14;2.60;99.90
29577;DHT22;16509;53.862;10.672;2024-01-30T00:44:40;2.60;99.90
29577;DHT22;16509;53.862;10.672;2024-01-30T00:47:06;2.50;99.90
29577;DHT22;16509;53.862;10.672;2024-01-30T00:49:32;2.50;99.90
29577;DHT22;16509;53.862;10.672;2024-01-30T00:51:57;2.50;99.90
29577;DHT22;16509;53.862;10.672;2024-01-30T00:54:23;2.50;99.90
29577;DHT22;16509;53.862;10.672;2024-01-30T00:56:48;2.50;99.90
29577;DHT22;16509;53.862;10.672;2024-01-30T00:59:14;2.40;99.90
29577;DHT22;16509;53.862;10.672;2024-01-30T01:01:40;2.40;99.90
29577;DHT22;16509;53.862;10.672;2024-01-30T01:04:05;2.50;99.90
29577;DHT22;16509;53.862;10.672;2024-01-30T01:06:31;2.50;99.90
29577;DHT22;16509;53.862;10.672;2024-01-30T01:08:56;2.40;99.90
29577;DHT22;16509;53.862;10.672;2024-01-30T01:11:22;2.40;99.90
29577;DHT22;16509;53.862;10.672;2024-01-30T01:13:47;2.40;99.90
29577;DHT22;16509;53.862;10.672;2024-01-30T01:16:13;2.40;99.90
29577;DHT22;16509;53.862;10.672;2024-01-30T01:18:38;2.40;99.90
29577;DHT22;16509;53.862;10.672;2024-01-30T01:21:04;2.40;99.90
29577;DHT22;16509;53.862;10.672;2024-01-30T01:23:30;2.40;99.90
29577;DHT22;16509;53.862;10.672;2024-01-30T01:25:55;2.40;99.90
29577;DHT22;16509;53.862;10.672;2024-01-30T01:28:21;2.40;99.90
29577;DHT22;16509;53.862;10.672;2024-01-30T01:30:46;2.40;99.90
29577;DHT22;16509;53.862;10.672;2024-01-30T01:33:12;2.40;99.90
29577;DHT22;16509;53.862;10.672;2024-01-30T01:35:39;2.40;99.90
29577;DHT22;16509;53.862;10.672;2024-01-30T01:38:05;2.40;99.90
29577;DHT22;16509;53.862;10.672;2024-01-30T01:40:31;2.40;99.90
29577;DHT22;16509;53.862;10.672;2024-01-30T01:42:56;2.40;99.90
29577;DHT22;16509;53.862;10.672;2024-01-30T01:45:22;2.40;99.90
29577;DHT22;16509;53.862;10.672;2024-01-30T01:47:51;2.50;99.90
29577;DHT22;16509;53.862;10.672;2024-01-30T01:50:17;2.50;99.90
29577;DHT22;16509;53.862;10.672;2024-01-30T01:52:50;2.50;99.90
29577;DHT22;16509;53.862;10.672;2024-01-30T01:55:16;2.50;99.90
29577;DHT22;16509;53.862;10.672;2024-01-30T01:57:44;2.50;99.90
29577;DHT22;16509;53.862;10.672;2024-01-30T02:00:10;2.50;99.90
29577;DHT22;16509;53.862;10.672;2024-01-30T02:02:37;2.60;99.90
29577;DHT22;16509;53.862;10.672;2024-01-30T02:05:04;2.60;99.90
29577;DHT22;16509;53.862;10.672;2024-01-30T02:07:30;2.60;99.90
29577;DHT22;16509;53.862;10.672;2024-01-30T02:09:56;2.60;99.90
29577;DHT22;16509;53.862;10.672;2024-01-30T02:12:21;2.70;99.90
29577;DHT22;16509;53.862;10.672;2024-01-30T02:14:47;2.70;99.90
29577;DHT22;16509;53.862;10.672;2024-01-30T02:17:15;2.70;99.90
29577;DHT22;16509;53.862;10.672;2024-01-30T02:19:41;2.80;99.90
29577;DHT22;16509;53.862;10.672;2024-01-30T02:22:07;2.80;99.90
29577;DHT22;16509;53.862;10.672;2024-01-30T02:24:33;2.80;99.90
29577;DHT22;16509;53.862;10.672;2024-01-30T02:26:58;3.00;99.90
29577;DHT22;16509;53.862;10.672;2024-01-30T02:29:24;3.10;99.90
29577;DHT22;16509;53.862;10.672;2024-01-30T02:31:49;3.20;99.90
29577;DHT22;16509;53.862;10.672;2024-01-30T02:34:15;3.20;99.90
29577;DHT22;16509;53.862;10.672;2024-01-30T02:36:44;3.30;99.90
29577;DHT22;16509;53.862;10.672;2024-01-30T02:39:10;3.30;99.90
29577;DHT22;16509;53.862;10.672;2024-01-30T02:41:35;3.50;99.90
29577;DHT22;16509;53.862;10.672;2024-01-30T02:44:02;3.50;99.90
29577;DHT22;16509;53.862;10.672;2024-01-30T02:46:27;3.70;99.90
29577;DHT22;16509;53.862;10.672;2024-01-30T02:48:53;3.70;99.90
29577;DHT22;16509;53.862;10.672;2024-01-30T02:51:18;3.70;99.90
29577;DHT22;16509;53.862;10.672;2024-01-30T02:53:44;3.70;99.90
29577;DHT22;16509;53.862;10.672;2024-01-30T02:56:09;3.70;99.90
29577;DHT22;16509;53.862;10.672;2024-01-30T02:58:39;3.60;99.90
29577;DHT22;16509;53.862;10.672;2024-01-30T03:01:05;3.60;99.90
29577;DHT22;16509;53.862;10.672;2024-01-30T03:03:30;3.60;99.90
29577;DHT22;16509;53.862;10.672;2024-01-30T03:05:56;3.60;99.90
29577;DHT22;16509;53.862;10.672;2024-01-30T03:08:21;3.70;99.90
29577;DHT22;16509;53.862;10.672;2024-01-30T03:10:47;3.70;99.90
29577;DHT22;16509;53.862;10.672;2024-01-30T03:13:12;3.70;99.90
29577;DHT22;16509;53.862;10.672;2024-01-30T03:15:38;3.70;99.90
29577;DHT22;16509;53.862;10.672;2024-01-30T03:18:04;3.60;99.90
29577;DHT22;16509;53.862;10.672;2024-01-30T03:20:29;3.60;99.90
29577;DHT22;16509;53.862;10.672;2024-01-30T03:22:55;3.50;99.90
29577;DHT22;16509;53.862;10.672;2024-01-30T03:25:21;3.50;99.90
29577;DHT22;16509;53.862;10.672;2024-01-30T03:27:47;3.40;99.90
29577;DHT22;16509;53.862;10.672;2024-01-30T03:30:12;3.40;99.90
29577;DHT22;16509;53.862;10.672;2024-01-30T03:32:38;3.30;99.90
29577;DHT22;16509;53.862;10.672;2024-01-30T03:35:04;3.30;99.90
29577;DHT22;16509;53.862;10.672;2024-01-30T03:37:29;3.20;99.90
29577;DHT22;16509;53.862;10.672;2024-01-30T03:39:55;3.20;99.90
29577;DHT22;16509;53.862;10.672;2024-01-30T03:42:21;3.30;99.90
29577;DHT22;16509;53.862;10.672;2024-01-30T03:44:47;3.30;99.90
29577;DHT22;16509;53.862;10.672;2024-01-30T03:47:13;3.30;99.90
29577;DHT22;16509;53.862;10.672;2024-01-30T03:49:39;3.20;99.90
29577;DHT22;16509;53.862;10.672;2024-01-30T03:52:05;3.30;99.90
29577;DHT22;16509;53.862;10.672;2024-01-30T03:54:30;3.20;99.90
29577;DHT22;16509;53.862;10.672;2024-01-30T03:56:56;3.20;99.90
29577;DHT22;16509;53.862;10.672;2024-01-30T03:59:21;3.20;99.90
29577;DHT22;16509;53.862;10.672;2024-01-30T04:01:50;3.10;99.90
29577;DHT22;16509;53.862;10.672;2024-01-30T04:04:17;3.00;99.90
29577;DHT22;16509;53.862;10.672;2024-01-30T04:06:43;3.00;99.90
29577;DHT22;16509;53.862;10.672;2024-01-30T04:09:09;2.90;99.90
29577;DHT22;16509;53.862;10.672;2024-01-30T04:11:34;2.80;99.90
29577;DHT22;16509;53.862;10.672;2024-01-30T04:14:00;2.80;99.90
29577;DHT22;16509;53.862;10.672;2024-01-30T04:16:26;2.80;99.90
29577;DHT22;16509;53.862;10.672;2024-01-30T04:18:52;2.80;99.90
29577;DHT22;16509;53.862;10.672;2024-01-30T04:21:17;2.80;99.90
29577;DHT22;16509;53.862;10.672;2024-01-30T04:23:43;2.80;99.90
29577;DHT22;16509;53.862;10.672;2024-01-30T04:26:09;2.70;99.90
29577;DHT22;16509;53.862;10.672;2024-01-30T04:28:34;2.70;99.90
29577;DHT22;16509;53.862;10.672;2024-01-30T04:31:00;2.70;99.90
29577;DHT22;16509;53.862;10.672;2024-01-30T04:33:25;3.00;99.90
29577;DHT22;16509;53.862;10.672;2024-01-30T04:35:51;3.10;99.90
29577;DHT22;16509;53.862;10.672;2024-01-30T04:38:17;3.20;99.90
29577;DHT22;16509;53.862;10.672;2024-01-30T04:40:43;3.30;99.90
29577;DHT22;16509;53.862;10.672;2024-01-30T04:43:08;3.20;99.90
29577;DHT22;16509;53.862;10.672;2024-01-30T04:45:35;3.20;99.90
29577;DHT22;16509;53.862;10.672;2024-01-30T04:48:00;3.10;99.90
29577;DHT22;16509;53.862;10.672;2024-01-30T04:50:26;3.00;99.90
29577;DHT22;16509;53.862;10.672;2024-01-30T04:52:52;2.90;99.90
29577;DHT22;16509;53.862;10.672;2024-01-30T04:55:17;2.80;99.90
29577;DHT22;16509;53.862;10.672;2024-01-30T04:57:43;2.90;99.90
29577;DHT22;16509;53.862;10.672;2024-01-30T05:00:09;3.00;99.90
29577;DHT22;16509;53.862;10.672;2024-01-30T05:02:35;3.10;99.90
29577;DHT22;16509;53.862;10.672;2024-01-30T05:05:00;3.10;99.90
29577;DHT22;16509;53.862;10.672;2024-01-30T05:07:26;3.10;99.90
29577;DHT22;16509;53.862;10.672;2024-01-30T05:09:51;3.00;99.90
29577;DHT22;16509;53.862;10.672;2024-01-30T05:12:17;2.90;99.90
29577;DHT22;16509;53.862;10.672;2024-01-30T05:14:43;2.80;99.90
29577;DHT22;16509;53.862;10.672;2024-01-30T05:17:08;2.70;99.90
29577;DHT22;16509;53.862;10.672;2024-01-30T05:19:35;2.70;99.90
29577;DHT22;16509;53.862;10.672;2024-01-30T05:22:01;2.70;99.90
29577;DHT22;16509;53.862;10.672;2024-01-30T05:24:26;2.60;99.90
29577;DHT22;16509;53.862;10.672;2024-01-30T05:26:52;2.60;99.90
29577;DHT22;16509;53.862;10.672;2024-01-30T05:29:17;2.60;99.90
29577;DHT22;16509;53.862;10.672;2024-01-30T05:31:43;2.60;99.90
29577;DHT22;16509;53.862;10.672;2024-01-30T05:34:09;2.70;99.90
29577;DHT22;16509;53.862;10.672;2024-01-30T05:36:34;2.60;99.90
29577;DHT22;16509;53.862;10.672;2024-01-30T05:39:00;2.70;99.90
29577;DHT22;16509;53.862;10.672;2024-01-30T05:41:26;2.90;99.90
29577;DHT22;16509;53.862;10.672;2024-01-30T05:43:51;2.90;99.90
29577;DHT22;16509;53.862;10.672;2024-01-30T05:46:17;2.90;99.90
29577;DHT22;16509;53.862;10.672;2024-01-30T05:48:42;3.00;99.90
29577;DHT22;16509;53.862;10.672;2024-01-30T05:51:08;3.10;99.90
29577;DHT22;16509;53.862;10.672;2024-01-30T05:53:34;3.10;99.90
29577;DHT22;16509;53.862;10.672;2024-01-30T05:56:03;3.10;99.90
29577;DHT22;16509;53.862;10.672;2024-01-30T05:58:29;3.20;99.90
29577;DHT22;16509;53.862;10.672;2024-01-30T06:00:56;3.20;99.90
29577;DHT22;16509;53.862;10.672;2024-01-30T06:03:22;3.20;99.90
29577;DHT22;16509;53.862;10.672;2024-01-30T06:05:48;3.10;99.90
29577;DHT22;16509;53.862;10.672;2024-01-30T06:08:13;3.10;99.90
29577;DHT22;16509;53.862;10.672;2024-01-30T06:10:39;3.20;99.90
29577;DHT22;16509;53.862;10.672;2024-01-30T06:13:05;3.20;99.90
29577;DHT22;16509;53.862;10.672;2024-01-30T06:15:31;3.30;99.90
29577;DHT22;16509;53.862;10.672;2024-01-30T06:17:58;3.30;99.90
29577;DHT22;16509;53.862;10.672;2024-01-30T06:20:23;3.30;99.90
29577;DHT22;16509;53.862;10.672;2024-01-30T06:22:49;3.20;99.90
29577;DHT22;16509;53.862;10.672;2024-01-30T06:25:15;3.20;99.90
29577;DHT22;16509;53.862;10.672;2024-01-30T06:27:42;3.20;99.90
29577;DHT22;16509;53.862;10.672;2024-01-30T06:30:08;3.30;99.90
29577;DHT22;16509;53.862;10.672;2024-01-30T06:32:34;3.30;99.90
29577;DHT22;16509;53.862;10.672;2024-01-30T06:35:01;3.30;99.90
29577;DHT22;16509;53.862;10.672;2024-01-30T06:37:27;3.30;99.90
29577;DHT22;16509;53.862;10.672;2024-01-30T06:39:52;3.30;99.90
29577;DHT22;16509;53.862;10.672;2024-01-30T06:42:18;3.40;99.90
29577;DHT22;16509;53.862;10.672;2024-01-30T06:44:44;3.40;99.90
29577;DHT22;16509;53.862;10.672;2024-01-30T06:47:10;3.50;99.90
29577;DHT22;16509;53.862;10.672;2024-01-30T06:49:36;3.50;99.90
29577;DHT22;16509;53.862;10.672;2024-01-30T06:52:05;3.50;99.90
29577;DHT22;16509;53.862;10.672;2024-01-30T06:54:30;3.50;99.90
29577;DHT22;16509;53.862;10.672;2024-01-30T06:56:56;3.50;99.90
29577;DHT22;16509;53.862;10.672;2024-01-30T06:59:22;3.50;99.90
29577;DHT22;16509;53.862;10.672;2024-01-30T07:01:47;3.50;99.90
29577;DHT22;16509;53.862;10.672;2024-01-30T07:04:13;3.50;99.90
29577;DHT22;16509;53.862;10.672;2024-01-30T07:06:38;3.60;99.90
29577;DHT22;16509;53.862;10.672;2024-01-30T07:09:04;3.60;99.90
29577;DHT22;16509;53.862;10.672;2024-01-30T07:11:30;3.60;99.90
29577;DHT22;16509;53.862;10.672;2024-01-30T07:13:56;3.60;99.90
29577;DHT22;16509;53.862;10.672;2024-01-30T07:16:21;3.60;99.90
29577;DHT22;16509;53.862;10.672;2024-01-30T07:18:48;3.60;99.90
29577;DHT22;16509;53.862;10.672;2024-01-30T07:21:14;3.70;99.90
29577;DHT22;16509;53.862;10.672;2024-01-30T07:23:40;3.70;99.90
29577;DHT22;16509;53.862;10.672;2024-01-30T07:26:07;3.70;99.90
29577;DHT22;16509;53.862;10.672;2024-01-30T07:28:34;3.70;99.90
29577;DHT22;16509;53.862;10.672;2024-01-30T07:31:02;3.80;99.90
29577;DHT22;16509;53.862;10.672;2024-01-30T07:33:28;3.80;99.90
29577;DHT22;16509;53.862;10.672;2024-01-30T07:35:54;3.70;99.90
29577;DHT22;16509;53.862;10.672;2024-01-30T07:38:20;3.80;99.90
29577;DHT22;16509;53.862;10.672;2024-01-30T07:40:45;3.80;99.90
29577;DHT22;16509;53.862;10.672;2024-01-30T07:43:11;3.80;99.90
29577;DHT22;16509;53.862;10.672;2024-01-30T07:45:37;3.80;99.90
29577;DHT22;16509;53.862;10.672;2024-01-30T07:48:05;3.90;99.90
29577;DHT22;16509;53.862;10.672;2024-01-30T07:50:30;3.90;99.90
29577;DHT22;16509;53.862;10.672;2024-01-30T07:52:56;4.00;99.90
29577;DHT22;16509;53.862;10.672;2024-01-30T07:55:22;4.00;99.90
29577;DHT22;16509;53.862;10.672;2024-01-30T07:57:53;4.00;99.90
29577;DHT22;16509;53.862;10.672;2024-01-30T08:00:20;4.10;99.90
29577;DHT22;16509;53.862;10.672;2024-01-30T08:02:46;4.10;99.90
29577;DHT22;16509;53.862;10.672;2024-01-30T08:05:12;4.10;99.90
29577;DHT22;16509;53.862;10.672;2024-01-30T08:07:39;4.20;99.90
29577;DHT22;16509;53.862;10.672;2024-01-30T08:10:05;4.30;99.90
29577;DHT22;16509;53.862;10.672;2024-01-30T08:12:31;4.30;99.90
29577;DHT22;16509;53.862;10.672;2024-01-30T08:14:56;4.40;99.90
29577;DHT22;16509;53.862;10.672;2024-01-30T08:17:22;4.50;99.90
29577;DHT22;16509;53.862;10.672;2024-01-30T08:19:47;4.50;99.90
29577;DHT22;16509;53.862;10.672;2024-01-30T08:22:13;4.60;99.90
29577;DHT22;16509;53.862;10.672;2024-01-30T08:24:40;4.60;99.90
29577;DHT22;16509;53.862;10.672;2024-01-30T08:27:06;4.70;99.90
29577;DHT22;16509;53.862;10.672;2024-01-30T08:29:35;4.70;99.90
29577;DHT22;16509;53.862;10.672;2024-01-30T08:32:00;4.70;99.90
29577;DHT22;16509;53.862;10.672;2024-01-30T08:34:26;4.70;99.90
29577;DHT22;16509;53.862;10.672;2024-01-30T08:36:51;4.80;99.90
29577;DHT22;16509;53.862;10.672;2024-01-30T08:39:17;4.90;99.90
29577;DHT22;16509;53.862;10.672;2024-01-30T08:41:42;5.00;99.90
29577;DHT22;16509;53.862;10.672;2024-01-30T08:44:08;5.00;99.90
29577;DHT22;16509;53.862;10.672;2024-01-30T08:46:36;5.10;99.90
29577;DHT22;16509;53.862;10.672;2024-01-30T08:49:01;5.10;99.90
29577;DHT22;16509;53.862;10.672;2024-01-30T08:51:28;5.10;99.90
29577;DHT22;16509;53.862;10.672;2024-01-30T08:53:53;5.20;99.90
29577;DHT22;16509;53.862;10.672;2024-01-30T08:56:19;5.30;99.90
29577;DHT22;16509;53.862;10.672;2024-01-30T08:58:45;5.30;99.90
29577;DHT22;16509;53.862;10.672;2024-01-30T09:01:10;5.30;99.90
29577;DHT22;16509;53.862;10.672;2024-01-30T09:03:36;5.40;99.90
29577;DHT22;16509;53.862;10.672;2024-01-30T09:06:11;5.40;99.90
29577;DHT22;16509;53.862;10.672;2024-01-30T09:08:37;5.40;99.90
29577;DHT22;16509;53.862;10.672;2024-01-30T09:11:09;5.40;99.90
29577;DHT22;16509;53.862;10.672;2024-01-30T09:13:35;5.50;99.90
29577;DHT22;16509;53.862;10.672;2024-01-30T09:16:00;5.50;99.90
29577;DHT22;16509;53.862;10.672;2024-01-30T09:18:26;5.50;99.90
29577;DHT22;16509;53.862;10.672;2024-01-30T09:20:51;5.60;99.90
29577;DHT22;16509;53.862;10.672;2024-01-30T09:23:17;5.60;99.90
29577;DHT22;16509;53.862;10.672;2024-01-30T09:25:44;5.70;99.90
29577;DHT22;16509;53.862;10.672;2024-01-30T09:28:09;7.70;99.90
29577;DHT22;16509;53.862;10.672;2024-01-30T09:30:35;5.80;99.90
29577;DHT22;16509;53.862;10.672;2024-01-30T09:33:00;5.90;99.90
29577;DHT22;16509;53.862;10.672;2024-01-30T09:35:26;6.00;99.90
29577;DHT22;16509;53.862;10.672;2024-01-30T09:37:51;6.10;99.90
29577;DHT22;16509;53.862;10.672;2024-01-30T09:40:18;6.20;99.90
29577;DHT22;16509;53.862;10.672;2024-01-30T09:42:46;6.10;99.90
29577;DHT22;16509;53.862;10.672;2024-01-30T09:45:14;6.20;99.90
29577;DHT22;16509;53.862;10.672;2024-01-30T09:47:43;6.20;99.90
29577;DHT22;16509;53.862;10.672;2024-01-30T09:50:10;6.30;99.90
29577;DHT22;16509;53.862;10.672;2024-01-30T09:52:36;6.30;99.90
29577;DHT22;16509;53.862;10.672;2024-01-30T09:55:03;6.40;99.90
29577;DHT22;16509;53.862;10.672;2024-01-30T09:57:29;6.40;99.90
29577;DHT22;16509;53.862;10.672;2024-01-30T09:59:54;6.50;99.90
29577;DHT22;16509;53.862;10.672;2024-01-30T10:02:20;6.50;99.90
29577;DHT22;16509;53.862;10.672;2024-01-30T10:04:50;6.60;99.90
29577;DHT22;16509;53.862;10.672;2024-01-30T10:07:17;6.70;99.90
29577;DHT22;16509;53.862;10.672;2024-01-30T10:09:42;6.80;99.90
29577;DHT22;16509;53.862;10.672;2024-01-30T10:12:09;6.90;99.90
29577;DHT22;16509;53.862;10.672;2024-01-30T10:14:38;6.90;99.90
29577;DHT22;16509;53.862;10.672;2024-01-30T10:17:04;7.00;99.90
29577;DHT22;16509;53.862;10.672;2024-01-30T10:19:31;7.10;99.90
29577;DHT22;16509;53.862;10.672;2024-01-30T10:21:56;7.10;99.90
29577;DHT22;16509;53.862;10.672;2024-01-30T10:24:26;7.20;99.90
29577;DHT22;16509;53.862;10.672;2024-01-30T10:26:52;7.20;99.90
29577;DHT22;16509;53.862;10.672;2024-01-30T10:29:18;7.30;99.90
29577;DHT22;16509;53.862;10.672;2024-01-30T10:31:43;7.30;99.90
29577;DHT22;16509;53.862;10.672;2024-01-30T10:34:09;7.30;99.90
29577;DHT22;16509;53.862;10.672;2024-01-30T10:36:40;7.30;99.90
29577;DHT22;16509;53.862;10.672;2024-01-30T10:39:08;7.60;99.90
29577;DHT22;16509;53.862;10.672;2024-01-30T10:41:47;7.50;99.90
29577;DHT22;16509;53.862;10.672;2024-01-30T10:44:18;7.60;99.90
29577;DHT22;16509;53.862;10.672;2024-01-30T10:46:47;7.60;99.90
29577;DHT22;16509;53.862;10.672;2024-01-30T10:49:15;7.60;99.90
29577;DHT22;16509;53.862;10.672;2024-01-30T10:51:42;7.60;99.90
29577;DHT22;16509;53.862;10.672;2024-01-30T10:54:09;7.70;99.90
29577;DHT22;16509;53.862;10.672;2024-01-30T10:56:35;7.70;99.90
29577;DHT22;16509;53.862;10.672;2024-01-30T10:59:04;7.70;99.90
29577;DHT22;16509;53.862;10.672;2024-01-30T11:01:30;7.70;99.90
29577;DHT22;16509;53.862;10.672;2024-01-30T11:03:56;7.80;99.90
29577;DHT22;16509;53.862;10.672;2024-01-30T11:06:23;7.80;99.90
29577;DHT22;16509;53.862;10.672;2024-01-30T11:09:05;7.80;99.90
29577;DHT22;16509;53.862;10.672;2024-01-30T11:11:57;7.90;99.90
29577;DHT22;16509;53.862;10.672;2024-01-30T11:14:29;8.00;99.90
29577;DHT22;16509;53.862;10.672;2024-01-30T11:16:57;8.00;99.90
29577;DHT22;16509;53.862;10.672;2024-01-30T11:19:25;8.10;99.90
29577;DHT22;16509;53.862;10.672;2024-01-30T11:21:54;8.10;99.90
29577;DHT22;16509;53.862;10.672;2024-01-30T11:24:23;8.20;99.90
29577;DHT22;16509;53.862;10.672;2024-01-30T11:26:49;8.30;99.90
29577;DHT22;16509;53.862;10.672;2024-01-30T11:29:20;8.30;99.90
29577;DHT22;16509;53.862;10.672;2024-01-30T11:31:53;8.30;99.90
29577;DHT22;16509;53.862;10.672;2024-01-30T11:34:20;8.30;99.90
29577;DHT22;16509;53.862;10.672;2024-01-30T11:36:51;8.40;99.90
29577;DHT22;16509;53.862;10.672;2024-01-30T11:39:20;8.40;99.90
29577;DHT22;16509;53.862;10.672;2024-01-30T11:41:46;8.40;99.90
29577;DHT22;16509;53.862;10.672;2024-01-30T11:44:13;8.40;99.90
29577;DHT22;16509;53.862;10.672;2024-01-30T11:46:38;8.40;99.90
29577;DHT22;16509;53.862;10.672;2024-01-30T11:49:04;8.50;99.90
29577;DHT22;16509;53.862;10.672;2024-01-30T11:51:31;8.40;99.90
29577;DHT22;16509;53.862;10.672;2024-01-30T11:53:57;8.40;99.90
29577;DHT22;16509;53.862;10.672;2024-01-30T11:56:24;8.40;99.90
29577;DHT22;16509;53.862;10.672;2024-01-30T11:58:50;8.40;99.90
29577;DHT22;16509;53.862;10.672;2024-01-30T12:01:17;8.40;99.90
29577;DHT22;16509;53.862;10.672;2024-01-30T12:03:48;8.40;99.90
29577;DHT22;16509;53.862;10.672;2024-01-30T12:06:15;8.40;99.90
29577;DHT22;16509;53.862;10.672;2024-01-30T12:08:41;8.40;99.90
29577;DHT22;16509;53.862;10.672;2024-01-30T12:11:07;8.30;99.90
29577;DHT22;16509;53.862;10.672;2024-01-30T12:13:33;8.30;99.90
29577;DHT22;16509;53.862;10.672;2024-01-30T12:15:59;8.30;99.90
29577;DHT22;16509;53.862;10.672;2024-01-30T12:18:25;8.40;99.90
29577;DHT22;16509;53.862;10.672;2024-01-30T12:20:58;8.30;99.90
29577;DHT22;16509;53.862;10.672;2024-01-30T12:23:24;8.30;99.90
29577;DHT22;16509;53.862;10.672;2024-01-30T12:25:51;8.40;99.90
29577;DHT22;16509;53.862;10.672;2024-01-30T12:28:17;8.40;99.90
29577;DHT22;16509;53.862;10.672;2024-01-30T12:30:43;8.40;99.90
29577;DHT22;16509;53.862;10.672;2024-01-30T12:33:08;8.40;99.90
29577;DHT22;16509;53.862;10.672;2024-01-30T12:35:35;8.50;99.90
29577;DHT22;16509;53.862;10.672;2024-01-30T12:38:02;8.40;99.90
29577;DHT22;16509;53.862;10.672;2024-01-30T12:40:28;8.40;99.90
29577;DHT22;16509;53.862;10.672;2024-01-30T12:42:54;8.50;99.90
29577;DHT22;16509;53.862;10.672;2024-01-30T12:45:19;8.50;99.90
29577;DHT22;16509;53.862;10.672;2024-01-30T12:47:47;8.50;99.90
29577;DHT22;16509;53.862;10.672;2024-01-30T12:50:12;8.50;99.90
29577;DHT22;16509;53.862;10.672;2024-01-30T12:52:41;8.60;99.90
29577;DHT22;16509;53.862;10.672;2024-01-30T12:55:07;8.60;99.90
29577;DHT22;16509;53.862;10.672;2024-01-30T12:57:32;8.60;99.90
29577;DHT22;16509;53.862;10.672;2024-01-30T12:59:58;8.70;99.90
29577;DHT22;16509;53.862;10.672;2024-01-30T13:02:23;8.70;99.90
29577;DHT22;16509;53.862;10.672;2024-01-30T13:04:49;8.70;99.90
29577;DHT22;16509;53.862;10.672;2024-01-30T13:07:15;8.70;99.90
29577;DHT22;16509;53.862;10.672;2024-01-30T13:09:40;8.70;99.90
29577;DHT22;16509;53.862;10.672;2024-01-30T13:12:06;8.80;99.90
29577;DHT22;16509;53.862;10.672;2024-01-30T13:14:32;8.80;99.90
29577;DHT22;16509;53.862;10.672;2024-01-30T13:16:57;10.70;99.90
29577;DHT22;16509;53.862;10.672;2024-01-30T13:19:23;8.80;99.90
29577;DHT22;16509;53.862;10.672;2024-01-30T13:21:49;8.90;99.90
29577;DHT22;16509;53.862;10.672;2024-01-30T13:24:14;8.90;99.90
29577;DHT22;16509;53.862;10.672;2024-01-30T13:26:40;8.90;99.90
29577;DHT22;16509;53.862;10.672;2024-01-30T13:29:07;8.90;99.90
29577;DHT22;16509;53.862;10.672;2024-01-30T13:31:33;8.90;99.90
29577;DHT22;16509;53.862;10.672;2024-01-30T13:34:00;8.90;99.90
29577;DHT22;16509;53.862;10.672;2024-01-30T13:36:25;9.00;99.90
29577;DHT22;16509;53.862;10.672;2024-01-30T13:38:51;9.10;99.90
29577;DHT22;16509;53.862;10.672;2024-01-30T13:41:16;9.10;99.90
29577;DHT22;16509;53.862;10.672;2024-01-30T13:43:43;9.10;99.90
29577;DHT22;16509;53.862;10.672;2024-01-30T13:46:09;9.20;99.90
29577;DHT22;16509;53.862;10.672;2024-01-30T13:48:35;10.60;99.90
29577;DHT22;16509;53.862;10.672;2024-01-30T13:51:01;9.20;99.90
29577;DHT22;16509;53.862;10.672;2024-01-30T13:53:26;9.20;99.90
29577;DHT22;16509;53.862;10.672;2024-01-30T13:55:52;9.20;99.90
29577;DHT22;16509;53.862;10.672;2024-01-30T13:58:17;9.20;99.90
29577;DHT22;16509;53.862;10.672;2024-01-30T14:00:43;9.70;99.90
29577;DHT22;16509;53.862;10.672;2024-01-30T14:03:09;9.20;99.90
29577;DHT22;16509;53.862;10.672;2024-01-30T14:05:34;9.20;99.90
29577;DHT22;16509;53.862;10.672;2024-01-30T14:08:01;9.20;99.90
29577;DHT22;16509;53.862;10.672;2024-01-30T14:10:27;9.30;99.90
29577;DHT22;16509;53.862;10.672;2024-01-30T14:12:52;9.30;99.90
29577;DHT22;16509;53.862;10.672;2024-01-30T14:15:18;9.20;99.90
29577;DHT22;16509;53.862;10.672;2024-01-30T14:17:44;9.40;99.90
29577;DHT22;16509;53.862;10.672;2024-01-30T14:20:10;9.40;99.90
29577;DHT22;16509;53.862;10.672;2024-01-30T14:22:37;9.40;99.90
29577;DHT22;16509;53.862;10.672;2024-01-30T14:25:03;9.40;99.90
29577;DHT22;16509;53.862;10.672;2024-01-30T14:27:29;9.50;99.90
29577;DHT22;16509;53.862;10.672;2024-01-30T14:29:56;9.50;99.90
29577;DHT22;16509;53.862;10.672;2024-01-30T14:32:21;9.50;99.90
29577;DHT22;16509;53.862;10.672;2024-01-30T14:34:49;9.50;99.90
29577;DHT22;16509;53.862;10.672;2024-01-30T14:37:14;9.50;99.90
29577;DHT22;16509;53.862;10.672;2024-01-30T14:39:40;9.50;99.90
29577;DHT22;16509;53.862;10.672;2024-01-30T14:42:07;9.50;99.90
29577;DHT22;16509;53.862;10.672;2024-01-30T14:44:33;9.50;99.90
29577;DHT22;16509;53.862;10.672;2024-01-30T14:46:59;9.50;99.90
29577;DHT22;16509;53.862;10.672;2024-01-30T14:49:25;9.50;99.90
29577;DHT22;16509;53.862;10.672;2024-01-30T14:51:51;9.50;99.90
29577;DHT22;16509;53.862;10.672;2024-01-30T14:54:16;9.50;99.90
29577;DHT22;16509;53.862;10.672;2024-01-30T14:56:42;9.50;99.90
29577;DHT22;16509;53.862;10.672;2024-01-30T14:59:07;9.50;99.90
29577;DHT22;16509;53.862;10.672;2024-01-30T15:01:33;9.50;99.90
29577;DHT22;16509;53.862;10.672;2024-01-30T15:03:58;9.50;99.90
29577;DHT22;16509;53.862;10.672;2024-01-30T15:06:24;9.50;99.90
29577;DHT22;16509;53.862;10.672;2024-01-30T15:08:51;9.50;99.90
29577;DHT22;16509;53.862;10.672;2024-01-30T15:11:17;9.60;99.90
29577;DHT22;16509;53.862;10.672;2024-01-30T15:13:43;9.50;99.90
29577;DHT22;16509;53.862;10.672;2024-01-30T15:16:08;9.50;99.90
29577;DHT22;16509;53.862;10.672;2024-01-30T15:18:34;9.50;99.90
29577;DHT22;16509;53.862;10.672;2024-01-30T15:21:00;9.50;99.90
29577;DHT22;16509;53.862;10.672;2024-01-30T15:23:25;9.50;99.90